sensor_id;sensor_type;location;lat;lon;timestamp;temperature;humidity
13798;DHT22;6970;51.340;3.240;2023-10-31T00:00:20;11.50;99.90
13798;DHT22;6970;51.340;3.240;2023-10-31T00:02:47;11.50;99.90
13798;DHT22;6970;51.340;3.240;2023-10-31T00:05:14;11.50;99.90
13798;DHT22;6970;51.340;3.240;2023-10-31T00:07:50;11.50;99.90
13798;DHT22;6970;51.340;3.240;2023-10-31T00:10:24;11.50;99.90
13798;DHT22;6970;51.340;3.240;2023-10-31T00:12:51;11.40;99.90
13798;DHT22;6970;51.340;3.240;2023-10-31T00:15:19;11.40;99.90
13798;DHT22;6970;51.340;3.240;2023-10-31T00:17:47;11.40;99.90
13798;DHT22;6970;51.340;3.240;2023-10-31T00:20:14;11.40;99.90
13798;DHT22;6970;51.340;3.240;2023-10-31T00:22:43;11.40;99.90
13798;DHT22;6970;51.340;3.240;2023-10-31T00:25:14;11.40;99.90
13798;DHT22;6970;51.340;3.240;2023-10-31T00:27:44;11.30;99.90
13798;DHT22;6970;51.340;3.240;2023-10-31T00:30:18;11.30;99.90
13798;DHT22;6970;51.340;3.240;2023-10-31T00:32:48;11.30;99.90
13798;DHT22;6970;51.340;3.240;2023-10-31T00:35:15;11.30;99.90
13798;DHT22;6970;51.340;3.240;2023-10-31T00:37:44;11.30;99.90
13798;DHT22;6970;51.340;3.240;2023-10-31T00:40:14;11.30;99.90
13798;DHT22;6970;51.340;3.240;2023-10-31T00:42:43;11.30;99.90
13798;DHT22;6970;51.340;3.240;2023-10-31T00:45:13;11.30;99.90
13798;DHT22;6970;51.340;3.240;2023-10-31T00:47:42;11.20;99.90
13798;DHT22;6970;51.340;3.240;2023-10-31T00:50:13;11.20;99.90
13798;DHT22;6970;51.340;3.240;2023-10-31T00:52:43;11.20;99.90
13798;DHT22;6970;51.340;3.240;2023-10-31T00:55:13;11.20;99.90
13798;DHT22;6970;51.340;3.240;2023-10-31T00:57:43;11.10;99.90
13798;DHT22;6970;51.340;3.240;2023-10-31T01:00:10;11.10;99.90
13798;DHT22;6970;51.340;3.240;2023-10-31T01:02:40;11.10;99.90
13798;DHT22;6970;51.340;3.240;2023-10-31T01:05:16;11.10;99.90
13798;DHT22;6970;51.340;3.240;2023-10-31T01:07:45;11.10;99.90
13798;DHT22;6970;51.340;3.240;2023-10-31T01:10:15;11.00;99.90
13798;DHT22;6970;51.340;3.240;2023-10-31T01:12:43;11.00;99.90
13798;DHT22;6970;51.340;3.240;2023-10-31T01:15:13;11.00;99.90
13798;DHT22;6970;51.340;3.240;2023-10-31T01:17:40;11.00;99.90
13798;DHT22;6970;51.340;3.240;2023-10-31T01:20:08;11.00;99.90
13798;DHT22;6970;51.340;3.240;2023-10-31T01:22:39;10.90;99.90
13798;DHT22;6970;51.340;3.240;2023-10-31T01:25:08;10.90;99.90
13798;DHT22;6970;51.340;3.240;2023-10-31T01:27:38;10.90;99.90
13798;DHT22;6970;51.340;3.240;2023-10-31T01:30:06;10.90;99.90
13798;DHT22;6970;51.340;3.240;2023-10-31T01:32:33;10.90;99.90
13798;DHT22;6970;51.340;3.240;2023-10-31T01:35:03;10.90;99.90
13798;DHT22;6970;51.340;3.240;2023-10-31T01:37:31;10.90;99.90
13798;DHT22;6970;51.340;3.240;2023-10-31T01:40:00;10.90;99.90
13798;DHT22;6970;51.340;3.240;2023-10-31T01:42:29;10.90;99.90
13798;DHT22;6970;51.340;3.240;2023-10-31T01:44:57;10.80;99.90
13798;DHT22;6970;51.340;3.240;2023-10-31T01:47:24;10.80;99.90
13798;DHT22;6970;51.340;3.240;2023-10-31T01:49:54;10.80;99.90
13798;DHT22;6970;51.340;3.240;2023-10-31T01:52:26;10.70;99.90
13798;DHT22;6970;51.340;3.240;2023-10-31T01:54:56;10.70;99.90
13798;DHT22;6970;51.340;3.240;2023-10-31T01:57:26;10.70;99.90
13798;DHT22;6970;51.340;3.240;2023-10-31T01:59:56;10.70;99.90
13798;DHT22;6970;51.340;3.240;2023-10-31T02:02:25;10.60;99.90
13798;DHT22;6970;51.340;3.240;2023-10-31T02:04:57;10.60;99.90
13798;DHT22;6970;51.340;3.240;2023-10-31T02:07:25;10.60;99.90
13798;DHT22;6970;51.340;3.240;2023-10-31T02:09:52;10.50;99.90
13798;DHT22;6970;51.340;3.240;2023-10-31T02:12:36;10.50;99.90
13798;DHT22;6970;51.340;3.240;2023-10-31T02:15:07;10.50;99.90
13798;DHT22;6970;51.340;3.240;2023-10-31T02:17:38;10.50;99.90
13798;DHT22;6970;51.340;3.240;2023-10-31T02:20:11;10.50;99.90
13798;DHT22;6970;51.340;3.240;2023-10-31T02:22:40;10.50;99.90
13798;DHT22;6970;51.340;3.240;2023-10-31T02:25:18;10.50;99.90
13798;DHT22;6970;51.340;3.240;2023-10-31T02:27:47;10.50;99.90
13798;DHT22;6970;51.340;3.240;2023-10-31T02:30:20;10.60;99.90
13798;DHT22;6970;51.340;3.240;2023-10-31T02:32:49;10.60;99.90
13798;DHT22;6970;51.340;3.240;2023-10-31T02:35:19;10.60;99.90
13798;DHT22;6970;51.340;3.240;2023-10-31T02:37:48;10.60;99.90
13798;DHT22;6970;51.340;3.240;2023-10-31T02:40:18;10.60;99.90
13798;DHT22;6970;51.340;3.240;2023-10-31T02:42:47;10.60;99.90
13798;DHT22;6970;51.340;3.240;2023-10-31T02:45:17;10.50;99.90
13798;DHT22;6970;51.340;3.240;2023-10-31T02:47:48;10.60;99.90
13798;DHT22;6970;51.340;3.240;2023-10-31T02:50:15;10.50;99.90
13798;DHT22;6970;51.340;3.240;2023-10-31T02:52:44;10.60;99.90
13798;DHT22;6970;51.340;3.240;2023-10-31T02:55:15;10.60;99.90
13798;DHT22;6970;51.340;3.240;2023-10-31T02:57:43;10.60;99.90
13798;DHT22;6970;51.340;3.240;2023-10-31T03:00:12;10.60;99.90
13798;DHT22;6970;51.340;3.240;2023-10-31T03:02:42;10.60;99.90
13798;DHT22;6970;51.340;3.240;2023-10-31T03:05:13;10.60;99.90
13798;DHT22;6970;51.340;3.240;2023-10-31T03:07:43;10.50;99.90
13798;DHT22;6970;51.340;3.240;2023-10-31T03:10:16;10.50;99.90
13798;DHT22;6970;51.340;3.240;2023-10-31T03:12:43;10.50;99.90
13798;DHT22;6970;51.340;3.240;2023-10-31T03:15:13;10.50;99.90
13798;DHT22;6970;51.340;3.240;2023-10-31T03:17:42;10.50;99.90
13798;DHT22;6970;51.340;3.240;2023-10-31T03:20:09;10.50;99.90
13798;DHT22;6970;51.340;3.240;2023-10-31T03:22:40;10.50;99.90
13798;DHT22;6970;51.340;3.240;2023-10-31T03:25:10;10.40;99.90
13798;DHT22;6970;51.340;3.240;2023-10-31T03:27:39;10.40;99.90
13798;DHT22;6970;51.340;3.240;2023-10-31T03:30:07;10.40;99.90
13798;DHT22;6970;51.340;3.240;2023-10-31T03:32:35;10.30;99.90
13798;DHT22;6970;51.340;3.240;2023-10-31T03:35:03;10.30;99.90
13798;DHT22;6970;51.340;3.240;2023-10-31T03:37:31;10.30;99.90
13798;DHT22;6970;51.340;3.240;2023-10-31T03:40:01;10.30;99.90
13798;DHT22;6970;51.340;3.240;2023-10-31T03:42:30;10.20;99.90
13798;DHT22;6970;51.340;3.240;2023-10-31T03:44:58;10.20;99.90
13798;DHT22;6970;51.340;3.240;2023-10-31T03:47:27;10.20;99.90
13798;DHT22;6970;51.340;3.240;2023-10-31T03:49:57;10.10;99.90
13798;DHT22;6970;51.340;3.240;2023-10-31T03:52:27;10.10;99.90
13798;DHT22;6970;51.340;3.240;2023-10-31T03:54:54;10.00;99.90
13798;DHT22;6970;51.340;3.240;2023-10-31T03:57:21;10.00;99.90
13798;DHT22;6970;51.340;3.240;2023-10-31T03:59:48;10.00;99.90
13798;DHT22;6970;51.340;3.240;2023-10-31T04:02:15;10.00;99.90
13798;DHT22;6970;51.340;3.240;2023-10-31T04:04:43;10.00;99.90
13798;DHT22;6970;51.340;3.240;2023-10-31T04:07:10;10.10;99.90
13798;DHT22;6970;51.340;3.240;2023-10-31T04:09:37;10.00;99.90
13798;DHT22;6970;51.340;3.240;2023-10-31T04:12:05;10.00;99.90
13798;DHT22;6970;51.340;3.240;2023-10-31T04:14:32;10.00;99.90
13798;DHT22;6970;51.340;3.240;2023-10-31T04:16:59;10.00;99.90
13798;DHT22;6970;51.340;3.240;2023-10-31T04:19:28;10.00;99.90
13798;DHT22;6970;51.340;3.240;2023-10-31T04:21:58;10.00;99.90
13798;DHT22;6970;51.340;3.240;2023-10-31T04:24:28;10.00;99.90
13798;DHT22;6970;51.340;3.240;2023-10-31T04:27:01;10.00;99.90
13798;DHT22;6970;51.340;3.240;2023-10-31T04:29:28;9.90;99.90
13798;DHT22;6970;51.340;3.240;2023-10-31T04:31:58;9.90;99.90
13798;DHT22;6970;51.340;3.240;2023-10-31T04:34:25;9.90;99.90
13798;DHT22;6970;51.340;3.240;2023-10-31T04:36:53;9.80;99.90
13798;DHT22;6970;51.340;3.240;2023-10-31T04:39:20;9.80;99.90
13798;DHT22;6970;51.340;3.240;2023-10-31T04:41:48;9.80;99.90
13798;DHT22;6970;51.340;3.240;2023-10-31T04:44:15;9.80;99.90
13798;DHT22;6970;51.340;3.240;2023-10-31T04:46:43;9.80;99.90
13798;DHT22;6970;51.340;3.240;2023-10-31T04:49:13;9.80;99.90
13798;DHT22;6970;51.340;3.240;2023-10-31T04:51:43;9.80;99.90
13798;DHT22;6970;51.340;3.240;2023-10-31T04:54:12;9.80;99.90
13798;DHT22;6970;51.340;3.240;2023-10-31T04:56:42;9.80;99.90
13798;DHT22;6970;51.340;3.240;2023-10-31T04:59:10;9.80;99.90
13798;DHT22;6970;51.340;3.240;2023-10-31T05:01:40;9.80;99.90
13798;DHT22;6970;51.340;3.240;2023-10-31T05:04:12;9.90;99.90
13798;DHT22;6970;51.340;3.240;2023-10-31T05:06:39;9.90;99.90
13798;DHT22;6970;51.340;3.240;2023-10-31T05:09:07;9.90;99.90
13798;DHT22;6970;51.340;3.240;2023-10-31T05:11:35;9.90;99.90
13798;DHT22;6970;51.340;3.240;2023-10-31T05:14:07;9.90;99.90
13798;DHT22;6970;51.340;3.240;2023-10-31T05:16:47;9.90;99.90
13798;DHT22;6970;51.340;3.240;2023-10-31T05:19:17;9.90;99.90
13798;DHT22;6970;51.340;3.240;2023-10-31T05:21:46;9.90;99.90
13798;DHT22;6970;51.340;3.240;2023-10-31T05:24:16;9.90;99.90
13798;DHT22;6970;51.340;3.240;2023-10-31T05:26:46;9.90;99.90
13798;DHT22;6970;51.340;3.240;2023-10-31T05:29:16;9.80;99.90
13798;DHT22;6970;51.340;3.240;2023-10-31T05:31:44;9.80;99.90
13798;DHT22;6970;51.340;3.240;2023-10-31T05:34:12;9.80;99.90
13798;DHT22;6970;51.340;3.240;2023-10-31T05:36:42;9.70;99.90
13798;DHT22;6970;51.340;3.240;2023-10-31T05:39:11;9.70;99.90
13798;DHT22;6970;51.340;3.240;2023-10-31T05:41:41;9.70;99.90
13798;DHT22;6970;51.340;3.240;2023-10-31T05:44:11;9.70;99.90
13798;DHT22;6970;51.340;3.240;2023-10-31T05:46:44;9.70;99.90
13798;DHT22;6970;51.340;3.240;2023-10-31T05:49:14;9.70;99.90
13798;DHT22;6970;51.340;3.240;2023-10-31T05:51:42;9.70;99.90
13798;DHT22;6970;51.340;3.240;2023-10-31T05:54:11;9.70;99.90
13798;DHT22;6970;51.340;3.240;2023-10-31T05:56:38;9.70;99.90
13798;DHT22;6970;51.340;3.240;2023-10-31T05:59:06;9.70;99.90
13798;DHT22;6970;51.340;3.240;2023-10-31T06:01:37;9.70;99.90
13798;DHT22;6970;51.340;3.240;2023-10-31T06:04:10;9.70;99.90
13798;DHT22;6970;51.340;3.240;2023-10-31T06:06:39;9.70;99.90
13798;DHT22;6970;51.340;3.240;2023-10-31T06:09:09;9.60;99.90
13798;DHT22;6970;51.340;3.240;2023-10-31T06:11:41;9.60;99.90
13798;DHT22;6970;51.340;3.240;2023-10-31T06:14:10;9.60;99.90
13798;DHT22;6970;51.340;3.240;2023-10-31T06:16:43;9.60;99.90
13798;DHT22;6970;51.340;3.240;2023-10-31T06:19:16;9.60;99.90
13798;DHT22;6970;51.340;3.240;2023-10-31T06:21:43;9.60;99.90
13798;DHT22;6970;51.340;3.240;2023-10-31T06:24:12;9.60;99.90
13798;DHT22;6970;51.340;3.240;2023-10-31T06:26:42;9.60;99.90
13798;DHT22;6970;51.340;3.240;2023-10-31T06:29:11;9.60;99.90
13798;DHT22;6970;51.340;3.240;2023-10-31T06:32:01;9.60;99.90
13798;DHT22;6970;51.340;3.240;2023-10-31T06:34:34;9.60;99.90
13798;DHT22;6970;51.340;3.240;2023-10-31T06:37:01;9.60;99.90
13798;DHT22;6970;51.340;3.240;2023-10-31T06:39:34;9.70;99.90
13798;DHT22;6970;51.340;3.240;2023-10-31T06:42:02;9.70;99.90
13798;DHT22;6970;51.340;3.240;2023-10-31T06:44:29;9.70;99.90
13798;DHT22;6970;51.340;3.240;2023-10-31T06:46:56;9.70;99.90
13798;DHT22;6970;51.340;3.240;2023-10-31T06:49:23;9.80;99.90
13798;DHT22;6970;51.340;3.240;2023-10-31T06:51:52;9.80;99.90
13798;DHT22;6970;51.340;3.240;2023-10-31T06:54:19;9.90;99.90
13798;DHT22;6970;51.340;3.240;2023-10-31T06:56:48;10.10;99.90
13798;DHT22;6970;51.340;3.240;2023-10-31T06:59:15;10.60;99.90
13798;DHT22;6970;51.340;3.240;2023-10-31T07:01:45;11.10;99.90
13798;DHT22;6970;51.340;3.240;2023-10-31T07:04:16;11.50;99.90
13798;DHT22;6970;51.340;3.240;2023-10-31T07:06:45;12.10;99.90
13798;DHT22;6970;51.340;3.240;2023-10-31T07:09:15;12.40;99.90
13798;DHT22;6970;51.340;3.240;2023-10-31T07:11:46;13.00;99.90
13798;DHT22;6970;51.340;3.240;2023-10-31T07:14:13;13.60;99.90
13798;DHT22;6970;51.340;3.240;2023-10-31T07:16:43;14.20;99.90
13798;DHT22;6970;51.340;3.240;2023-10-31T07:19:13;14.80;99.90
13798;DHT22;6970;51.340;3.240;2023-10-31T07:21:40;15.00;99.90
13798;DHT22;6970;51.340;3.240;2023-10-31T07:24:14;15.10;99.90
13798;DHT22;6970;51.340;3.240;2023-10-31T07:26:45;15.10;99.90
13798;DHT22;6970;51.340;3.240;2023-10-31T07:29:13;14.90;99.90
13798;DHT22;6970;51.340;3.240;2023-10-31T07:31:43;14.60;99.90
13798;DHT22;6970;51.340;3.240;2023-10-31T07:34:13;14.40;99.90
13798;DHT22;6970;51.340;3.240;2023-10-31T07:36:43;14.30;99.90
13798;DHT22;6970;51.340;3.240;2023-10-31T07:39:10;13.90;99.90
13798;DHT22;6970;51.340;3.240;2023-10-31T07:41:39;13.50;99.90
13798;DHT22;6970;51.340;3.240;2023-10-31T07:44:07;13.20;99.90
13798;DHT22;6970;51.340;3.240;2023-10-31T07:46:36;12.90;99.90
13798;DHT22;6970;51.340;3.240;2023-10-31T07:49:03;12.50;99.90
13798;DHT22;6970;51.340;3.240;2023-10-31T07:51:31;12.10;99.90
13798;DHT22;6970;51.340;3.240;2023-10-31T07:54:00;11.90;99.90
13798;DHT22;6970;51.340;3.240;2023-10-31T07:56:31;11.70;99.90
13798;DHT22;6970;51.340;3.240;2023-10-31T07:59:02;11.50;99.90
13798;DHT22;6970;51.340;3.240;2023-10-31T08:01:29;11.20;99.90
13798;DHT22;6970;51.340;3.240;2023-10-31T08:03:59;11.00;99.90
13798;DHT22;6970;51.340;3.240;2023-10-31T08:06:28;10.90;99.90
13798;DHT22;6970;51.340;3.240;2023-10-31T08:08:58;10.80;99.90
13798;DHT22;6970;51.340;3.240;2023-10-31T08:11:25;10.70;99.90
13798;DHT22;6970;51.340;3.240;2023-10-31T08:13:53;10.70;99.90
13798;DHT22;6970;51.340;3.240;2023-10-31T08:16:23;10.70;99.90
13798;DHT22;6970;51.340;3.240;2023-10-31T08:18:53;10.80;99.90
13798;DHT22;6970;51.340;3.240;2023-10-31T08:21:23;10.80;99.90
13798;DHT22;6970;51.340;3.240;2023-10-31T08:23:53;10.80;99.90
13798;DHT22;6970;51.340;3.240;2023-10-31T08:26:19;10.70;99.90
13798;DHT22;6970;51.340;3.240;2023-10-31T08:28:48;10.70;99.90
13798;DHT22;6970;51.340;3.240;2023-10-31T08:31:17;10.70;99.90
13798;DHT22;6970;51.340;3.240;2023-10-31T08:33:46;10.70;99.90
13798;DHT22;6970;51.340;3.240;2023-10-31T08:36:13;10.70;99.90
13798;DHT22;6970;51.340;3.240;2023-10-31T08:38:40;10.70;99.90
13798;DHT22;6970;51.340;3.240;2023-10-31T08:41:09;10.80;99.90
13798;DHT22;6970;51.340;3.240;2023-10-31T08:43:38;10.70;99.90
13798;DHT22;6970;51.340;3.240;2023-10-31T08:46:06;10.80;99.90
13798;DHT22;6970;51.340;3.240;2023-10-31T08:48:33;10.80;99.90
13798;DHT22;6970;51.340;3.240;2023-10-31T08:51:00;10.80;99.90
13798;DHT22;6970;51.340;3.240;2023-10-31T08:53:27;10.90;99.90
13798;DHT22;6970;51.340;3.240;2023-10-31T08:55:56;11.00;99.90
13798;DHT22;6970;51.340;3.240;2023-10-31T08:58:24;11.10;99.90
13798;DHT22;6970;51.340;3.240;2023-10-31T09:00:52;11.20;99.90
13798;DHT22;6970;51.340;3.240;2023-10-31T09:03:23;11.20;99.90
13798;DHT22;6970;51.340;3.240;2023-10-31T09:05:50;11.20;99.90
13798;DHT22;6970;51.340;3.240;2023-10-31T09:08:20;11.20;99.90
13798;DHT22;6970;51.340;3.240;2023-10-31T09:10:50;11.20;99.90
13798;DHT22;6970;51.340;3.240;2023-10-31T09:13:19;11.50;99.90
13798;DHT22;6970;51.340;3.240;2023-10-31T09:15:50;12.00;99.90
13798;DHT22;6970;51.340;3.240;2023-10-31T09:18:17;13.00;99.90
13798;DHT22;6970;51.340;3.240;2023-10-31T09:20:47;14.10;99.90
13798;DHT22;6970;51.340;3.240;2023-10-31T09:23:20;15.10;99.90
13798;DHT22;6970;51.340;3.240;2023-10-31T09:25:50;15.10;99.90
13798;DHT22;6970;51.340;3.240;2023-10-31T09:28:17;14.90;99.90
13798;DHT22;6970;51.340;3.240;2023-10-31T09:30:46;14.50;99.90
13798;DHT22;6970;51.340;3.240;2023-10-31T09:33:17;14.20;99.90
13798;DHT22;6970;51.340;3.240;2023-10-31T09:35:46;13.90;99.90
13798;DHT22;6970;51.340;3.240;2023-10-31T09:38:24;13.70;99.90
13798;DHT22;6970;51.340;3.240;2023-10-31T09:40:54;13.50;99.90
13798;DHT22;6970;51.340;3.240;2023-10-31T09:43:21;13.30;99.90
13798;DHT22;6970;51.340;3.240;2023-10-31T09:45:51;13.10;99.90
13798;DHT22;6970;51.340;3.240;2023-10-31T09:48:22;13.00;99.90
13798;DHT22;6970;51.340;3.240;2023-10-31T09:50:50;12.90;99.90
13798;DHT22;6970;51.340;3.240;2023-10-31T09:53:20;12.80;99.90
13798;DHT22;6970;51.340;3.240;2023-10-31T09:55:47;12.70;99.90
13798;DHT22;6970;51.340;3.240;2023-10-31T09:58:17;12.70;99.90
13798;DHT22;6970;51.340;3.240;2023-10-31T10:00:48;12.60;99.90
13798;DHT22;6970;51.340;3.240;2023-10-31T10:03:17;12.50;99.90
13798;DHT22;6970;51.340;3.240;2023-10-31T10:05:45;12.50;99.90
13798;DHT22;6970;51.340;3.240;2023-10-31T10:08:14;12.40;99.90
13798;DHT22;6970;51.340;3.240;2023-10-31T10:10:42;12.40;99.90
13798;DHT22;6970;51.340;3.240;2023-10-31T10:13:12;12.40;99.90
13798;DHT22;6970;51.340;3.240;2023-10-31T10:15:46;12.40;99.90
13798;DHT22;6970;51.340;3.240;2023-10-31T10:18:29;12.40;99.90
13798;DHT22;6970;51.340;3.240;2023-10-31T10:20:58;12.40;99.90
13798;DHT22;6970;51.340;3.240;2023-10-31T10:23:27;12.40;99.90
13798;DHT22;6970;51.340;3.240;2023-10-31T10:25:56;12.30;99.90
13798;DHT22;6970;51.340;3.240;2023-10-31T10:28:24;12.30;99.90
13798;DHT22;6970;51.340;3.240;2023-10-31T10:30:53;12.30;99.90
13798;DHT22;6970;51.340;3.240;2023-10-31T10:33:22;12.30;99.90
13798;DHT22;6970;51.340;3.240;2023-10-31T10:35:49;12.40;99.90
13798;DHT22;6970;51.340;3.240;2023-10-31T10:38:19;12.30;99.90
13798;DHT22;6970;51.340;3.240;2023-10-31T10:40:47;12.40;99.90
13798;DHT22;6970;51.340;3.240;2023-10-31T10:43:23;12.30;99.90
13798;DHT22;6970;51.340;3.240;2023-10-31T10:45:58;12.30;99.90
13798;DHT22;6970;51.340;3.240;2023-10-31T10:48:29;12.30;99.90
13798;DHT22;6970;51.340;3.240;2023-10-31T10:51:21;12.30;99.90
13798;DHT22;6970;51.340;3.240;2023-10-31T10:54:05;12.40;99.90
13798;DHT22;6970;51.340;3.240;2023-10-31T10:56:38;12.50;99.90
13798;DHT22;6970;51.340;3.240;2023-10-31T10:59:15;12.50;99.90
13798;DHT22;6970;51.340;3.240;2023-10-31T11:01:46;12.50;99.90
13798;DHT22;6970;51.340;3.240;2023-10-31T11:04:14;12.50;99.90
13798;DHT22;6970;51.340;3.240;2023-10-31T11:06:43;12.40;99.90
13798;DHT22;6970;51.340;3.240;2023-10-31T11:09:13;12.40;99.90
13798;DHT22;6970;51.340;3.240;2023-10-31T11:11:41;12.30;99.90
13798;DHT22;6970;51.340;3.240;2023-10-31T11:14:11;12.30;99.90
13798;DHT22;6970;51.340;3.240;2023-10-31T11:16:43;12.30;99.90
13798;DHT22;6970;51.340;3.240;2023-10-31T11:19:13;12.30;99.90
13798;DHT22;6970;51.340;3.240;2023-10-31T11:21:52;12.20;99.90
13798;DHT22;6970;51.340;3.240;2023-10-31T11:24:25;12.10;99.90
13798;DHT22;6970;51.340;3.240;2023-10-31T11:26:54;12.00;99.90
13798;DHT22;6970;51.340;3.240;2023-10-31T11:29:27;11.90;99.90
13798;DHT22;6970;51.340;3.240;2023-10-31T11:31:55;11.90;99.90
13798;DHT22;6970;51.340;3.240;2023-10-31T11:34:26;11.90;99.90
13798;DHT22;6970;51.340;3.240;2023-10-31T11:40:24;12.00;99.90
13798;DHT22;6970;51.340;3.240;2023-10-31T11:42:57;12.00;99.90
13798;DHT22;6970;51.340;3.240;2023-10-31T11:45:37;12.00;99.90
13798;DHT22;6970;51.340;3.240;2023-10-31T11:48:10;12.00;99.90
13798;DHT22;6970;51.340;3.240;2023-10-31T11:50:41;12.00;99.90
13798;DHT22;6970;51.340;3.240;2023-10-31T11:53:10;12.00;99.90
13798;DHT22;6970;51.340;3.240;2023-10-31T11:55:45;12.00;99.90
13798;DHT22;6970;51.340;3.240;2023-10-31T11:58:24;12.00;99.90
13798;DHT22;6970;51.340;3.240;2023-10-31T12:01:02;11.90;99.90
13798;DHT22;6970;51.340;3.240;2023-10-31T12:03:43;12.00;99.90
13798;DHT22;6970;51.340;3.240;2023-10-31T12:06:16;11.90;99.90
13798;DHT22;6970;51.340;3.240;2023-10-31T12:08:48;12.00;99.90
13798;DHT22;6970;51.340;3.240;2023-10-31T12:11:19;12.00;99.90
13798;DHT22;6970;51.340;3.240;2023-10-31T12:13:59;12.00;99.90
13798;DHT22;6970;51.340;3.240;2023-10-31T12:16:34;12.10;99.90
13798;DHT22;6970;51.340;3.240;2023-10-31T12:19:05;12.10;99.90
13798;DHT22;6970;51.340;3.240;2023-10-31T12:21:46;12.10;99.90
13798;DHT22;6970;51.340;3.240;2023-10-31T12:24:16;12.20;99.90
13798;DHT22;6970;51.340;3.240;2023-10-31T12:26:44;12.20;99.90
13798;DHT22;6970;51.340;3.240;2023-10-31T12:29:19;12.20;99.90
13798;DHT22;6970;51.340;3.240;2023-10-31T12:31:52;12.30;99.90
13798;DHT22;6970;51.340;3.240;2023-10-31T12:34:24;12.40;99.90
13798;DHT22;6970;51.340;3.240;2023-10-31T12:36:55;12.50;99.90
13798;DHT22;6970;51.340;3.240;2023-10-31T12:39:27;12.50;99.90
13798;DHT22;6970;51.340;3.240;2023-10-31T12:41:58;12.70;99.90
13798;DHT22;6970;51.340;3.240;2023-10-31T12:44:29;12.80;99.90
13798;DHT22;6970;51.340;3.240;2023-10-31T12:46:59;13.00;99.90
13798;DHT22;6970;51.340;3.240;2023-10-31T12:49:30;13.00;99.90
13798;DHT22;6970;51.340;3.240;2023-10-31T12:52:02;13.10;99.90
13798;DHT22;6970;51.340;3.240;2023-10-31T12:54:34;13.20;99.90
13798;DHT22;6970;51.340;3.240;2023-10-31T12:57:08;13.30;99.90
13798;DHT22;6970;51.340;3.240;2023-10-31T12:59:38;13.40;99.90
13798;DHT22;6970;51.340;3.240;2023-10-31T13:02:09;13.50;99.90
13798;DHT22;6970;51.340;3.240;2023-10-31T13:04:40;13.60;99.90
13798;DHT22;6970;51.340;3.240;2023-10-31T13:07:10;13.70;99.90
13798;DHT22;6970;51.340;3.240;2023-10-31T13:09:39;13.70;99.90
13798;DHT22;6970;51.340;3.240;2023-10-31T13:12:09;13.80;99.90
13798;DHT22;6970;51.340;3.240;2023-10-31T13:14:41;13.90;99.90
13798;DHT22;6970;51.340;3.240;2023-10-31T13:17:15;14.00;99.90
13798;DHT22;6970;51.340;3.240;2023-10-31T13:19:44;14.20;99.90
13798;DHT22;6970;51.340;3.240;2023-10-31T13:22:14;14.40;99.90
13798;DHT22;6970;51.340;3.240;2023-10-31T13:24:41;14.60;99.90
13798;DHT22;6970;51.340;3.240;2023-10-31T13:27:11;14.60;99.90
13798;DHT22;6970;51.340;3.240;2023-10-31T13:29:46;14.70;99.90
13798;DHT22;6970;51.340;3.240;2023-10-31T13:32:16;14.60;99.90
13798;DHT22;6970;51.340;3.240;2023-10-31T13:34:44;14.50;99.90
13798;DHT22;6970;51.340;3.240;2023-10-31T13:37:12;14.20;99.90
13798;DHT22;6970;51.340;3.240;2023-10-31T13:39:39;14.10;99.90
13798;DHT22;6970;51.340;3.240;2023-10-31T13:42:06;14.00;99.90
13798;DHT22;6970;51.340;3.240;2023-10-31T13:44:34;14.00;99.90
13798;DHT22;6970;51.340;3.240;2023-10-31T13:47:01;14.10;99.90
13798;DHT22;6970;51.340;3.240;2023-10-31T13:49:29;14.10;99.90
13798;DHT22;6970;51.340;3.240;2023-10-31T13:51:58;14.10;99.90
13798;DHT22;6970;51.340;3.240;2023-10-31T13:54:28;14.20;99.90
13798;DHT22;6970;51.340;3.240;2023-10-31T13:56:55;14.30;99.90
13798;DHT22;6970;51.340;3.240;2023-10-31T13:59:22;14.40;99.90
13798;DHT22;6970;51.340;3.240;2023-10-31T14:01:49;14.40;99.90
13798;DHT22;6970;51.340;3.240;2023-10-31T14:04:19;14.50;99.90
13798;DHT22;6970;51.340;3.240;2023-10-31T14:06:48;14.50;99.90
13798;DHT22;6970;51.340;3.240;2023-10-31T14:09:18;14.50;99.90
13798;DHT22;6970;51.340;3.240;2023-10-31T14:11:45;14.40;99.90
13798;DHT22;6970;51.340;3.240;2023-10-31T14:14:13;14.40;99.90
13798;DHT22;6970;51.340;3.240;2023-10-31T14:16:44;14.30;99.90
13798;DHT22;6970;51.340;3.240;2023-10-31T14:19:13;14.40;99.90
13798;DHT22;6970;51.340;3.240;2023-10-31T14:21:43;14.60;99.90
13798;DHT22;6970;51.340;3.240;2023-10-31T14:24:12;14.70;99.90
13798;DHT22;6970;51.340;3.240;2023-10-31T14:26:42;14.60;99.90
13798;DHT22;6970;51.340;3.240;2023-10-31T14:29:12;14.60;99.90
13798;DHT22;6970;51.340;3.240;2023-10-31T14:31:42;14.60;99.90
13798;DHT22;6970;51.340;3.240;2023-10-31T14:34:12;14.60;99.90
13798;DHT22;6970;51.340;3.240;2023-10-31T14:36:39;14.50;99.90
13798;DHT22;6970;51.340;3.240;2023-10-31T14:39:06;14.30;99.90
13798;DHT22;6970;51.340;3.240;2023-10-31T14:41:37;14.10;99.90
13798;DHT22;6970;51.340;3.240;2023-10-31T14:44:04;13.90;99.90
13798;DHT22;6970;51.340;3.240;2023-10-31T14:46:33;13.80;99.90
13798;DHT22;6970;51.340;3.240;2023-10-31T14:49:01;13.70;99.90
13798;DHT22;6970;51.340;3.240;2023-10-31T14:51:29;13.70;99.90
13798;DHT22;6970;51.340;3.240;2023-10-31T14:53:59;13.60;99.90
13798;DHT22;6970;51.340;3.240;2023-10-31T14:56:29;13.50;99.90
13798;DHT22;6970;51.340;3.240;2023-10-31T14:59:01;13.50;99.90
13798;DHT22;6970;51.340;3.240;2023-10-31T15:01:29;13.50;99.90
13798;DHT22;6970;51.340;3.240;2023-10-31T15:03:59;13.40;99.90
13798;DHT22;6970;51.340;3.240;2023-10-31T15:06:26;13.40;99.90
13798;DHT22;6970;51.340;3.240;2023-10-31T15:08:53;13.40;99.90
13798;DHT22;6970;51.340;3.240;2023-10-31T15:11:35;13.40;99.90
13798;DHT22;6970;51.340;3.240;2023-10-31T15:14:02;13.40;99.90
13798;DHT22;6970;51.340;3.240;2023-10-31T15:16:33;13.40;99.90
13798;DHT22;6970;51.340;3.240;2023-10-31T15:19:01;13.40;99.90
13798;DHT22;6970;51.340;3.240;2023-10-31T15:21:30;13.50;99.90
13798;DHT22;6970;51.340;3.240;2023-10-31T15:24:00;13.50;99.90
13798;DHT22;6970;51.340;3.240;2023-10-31T15:26:29;13.60;99.90
13798;DHT22;6970;51.340;3.240;2023-10-31T15:28:56;13.60;99.90
13798;DHT22;6970;51.340;3.240;2023-10-31T15:31:23;13.60;99.90
13798;DHT22;6970;51.340;3.240;2023-10-31T15:33:53;13.60;99.90
13798;DHT22;6970;51.340;3.240;2023-10-31T15:36:20;13.60;99.90
13798;DHT22;6970;51.340;3.240;2023-10-31T15:38:47;13.50;99.90
13798;DHT22;6970;51.340;3.240;2023-10-31T15:41:16;13.50;99.90
13798;DHT22;6970;51.340;3.240;2023-10-31T15:43:45;13.50;99.90
13798;DHT22;6970;51.340;3.240;2023-10-31T15:46:14;13.50;99.90
13798;DHT22;6970;51.340;3.240;2023-10-31T15:48:47;13.50;99.90
13798;DHT22;6970;51.340;3.240;2023-10-31T15:51:17;13.50;99.90
13798;DHT22;6970;51.340;3.240;2023-10-31T15:53:47;13.50;99.90
13798;DHT22;6970;51.340;3.240;2023-10-31T15:56:14;13.50;99.90
13798;DHT22;6970;51.340;3.240;2023-10-31T15:58:42;13.50;99.90
13798;DHT22;6970;51.340;3.240;2023-10-31T16:01:11;13.50;99.90
13798;DHT22;6970;51.340;3.240;2023-10-31T16:03:40;13.50;99.90
13798;DHT22;6970;51.340;3.240;2023-10-31T16:06:08;13.50;99.90